createdAt,value
2022-12-19T00:00:00.819Z,-5.50
2022-12-19T00:00:36.282Z,-5.50
2022-12-19T00:01:16.978Z,-5.50
2022-12-19T00:01:53.599Z,-5.50
2022-12-19T00:02:29.608Z,-5.50
2022-12-19T00:03:03.391Z,-5.50
2022-12-19T00:03:38.001Z,-5.50
2022-12-19T00:04:20.517Z,-5.50
2022-12-19T00:04:53.914Z,-5.50
2022-12-19T00:05:28.915Z,-5.50
2022-12-19T00:06:05.115Z,-5.50
2022-12-19T00:06:43.658Z,-5.50
2022-12-19T00:07:17.796Z,-5.50
2022-12-19T00:07:53.664Z,-5.50
2022-12-19T00:08:27.797Z,-5.50
2022-12-19T00:09:01.377Z,-5.50
2022-12-19T00:09:36.550Z,-5.50
2022-12-19T00:10:13.687Z,-5.50
2022-12-19T00:10:56.524Z,-5.50
2022-12-19T00:11:32.775Z,-5.50
2022-12-19T00:12:13.280Z,-5.40
2022-12-19T00:12:51.920Z,-5.40
2022-12-19T00:13:27.275Z,-5.50
2022-12-19T00:14:03.936Z,-5.50
2022-12-19T00:14:39.837Z,-5.50
2022-12-19T00:15:16.448Z,-5.50
2022-12-19T00:15:50.385Z,-5.50
2022-12-19T00:16:27.311Z,-5.50
2022-12-19T00:17:02.382Z,-5.50
2022-12-19T00:17:36.221Z,-5.50
2022-12-19T00:18:13.523Z,-5.50
2022-12-19T00:18:47.790Z,-5.50
2022-12-19T00:19:22.312Z,-5.40
2022-12-19T00:19:57.685Z,-5.40
2022-12-19T00:20:31.625Z,-5.40
2022-12-19T00:21:07.496Z,-5.40
2022-12-19T00:21:42.995Z,-5.40
2022-12-19T00:22:16.606Z,-5.40
2022-12-19T00:22:52.509Z,-5.40
2022-12-19T00:23:28.329Z,-5.50
2022-12-19T00:24:02.432Z,-5.40
2022-12-19T00:24:37.874Z,-5.40
2022-12-19T00:25:12.935Z,-5.40
2022-12-19T00:25:48.211Z,-5.40
2022-12-19T00:26:25.838Z,-5.40
2022-12-19T00:27:00.186Z,-5.40
2022-12-19T00:27:37.091Z,-5.30
2022-12-19T00:28:11.943Z,-5.30
2022-12-19T00:28:50.938Z,-5.30
2022-12-19T00:29:24.266Z,-5.30
2022-12-19T00:30:00.218Z,-5.30
2022-12-19T00:30:34.976Z,-5.30
2022-12-19T00:31:09.472Z,-5.30
2022-12-19T00:31:45.657Z,-5.30
2022-12-19T00:32:21.638Z,-5.30
2022-12-19T00:32:55.538Z,-5.30
2022-12-19T00:33:33.047Z,-5.30
2022-12-19T00:34:09.845Z,-5.30
2022-12-19T00:34:46.721Z,-5.20
2022-12-19T00:35:20.879Z,-5.20
2022-12-19T00:35:58.975Z,-5.20
2022-12-19T00:36:34.954Z,-5.20
2022-12-19T00:37:08.826Z,-5.20
2022-12-19T00:37:49.422Z,-5.20
2022-12-19T00:38:24.031Z,-5.20
2022-12-19T00:39:01.305Z,-5.20
2022-12-19T00:39:35.668Z,-5.20
2022-12-19T00:40:13.170Z,-5.20
2022-12-19T00:40:47.418Z,-5.20
2022-12-19T00:41:22.412Z,-5.20
2022-12-19T00:41:55.688Z,-5.20
2022-12-19T00:42:31.984Z,-5.20
2022-12-19T00:43:06.848Z,-5.20
2022-12-19T00:43:40.827Z,-5.20
2022-12-19T00:44:16.556Z,-5.10
2022-12-19T00:44:50.446Z,-5.10
2022-12-19T00:45:24.102Z,-5.10
2022-12-19T00:45:59.095Z,-5.10
2022-12-19T00:46:35.228Z,-5.10
2022-12-19T00:47:11.459Z,-5.10
2022-12-19T00:47:44.988Z,-5.00
2022-12-19T00:48:18.680Z,-5.00
2022-12-19T00:48:53.492Z,-5.00
2022-12-19T00:49:27.722Z,-5.00
2022-12-19T00:50:01.476Z,-5.00
2022-12-19T00:50:35.845Z,-5.00
2022-12-19T00:51:13.718Z,-5.00
2022-12-19T00:51:48.791Z,-4.90
2022-12-19T00:52:22.717Z,-4.90
2022-12-19T00:52:57.661Z,-4.90
2022-12-19T00:53:32.678Z,-4.90
2022-12-19T00:54:07.889Z,-4.90
2022-12-19T00:54:42.558Z,-4.90
2022-12-19T00:55:19.396Z,-4.90
2022-12-19T00:55:55.681Z,-4.90
2022-12-19T00:56:31.394Z,-4.80
2022-12-19T00:57:08.435Z,-4.80
2022-12-19T00:57:44.485Z,-4.80
2022-12-19T00:58:19.002Z,-4.80
2022-12-19T00:58:53.270Z,-4.80
2022-12-19T00:59:28.567Z,-4.80
2022-12-19T01:00:03.024Z,-4.70
2022-12-19T01:00:38.037Z,-4.80
2022-12-19T01:01:16.095Z,-4.70
2022-12-19T01:01:50.411Z,-4.70
2022-12-19T01:02:25.686Z,-4.70
2022-12-19T01:03:01.413Z,-4.70
2022-12-19T01:03:37.741Z,-4.60
2022-12-19T01:04:35.543Z,-4.60
2022-12-19T01:05:10.151Z,-4.60
2022-12-19T01:05:44.539Z,-4.60
2022-12-19T01:06:19.873Z,-4.60
2022-12-19T01:06:54.489Z,-4.60
2022-12-19T01:07:34.641Z,-4.60
2022-12-19T01:08:09.047Z,-4.50
2022-12-19T01:08:42.693Z,-4.50
2022-12-19T01:09:18.007Z,-4.50
2022-12-19T01:09:52.011Z,-4.50
2022-12-19T01:10:27.130Z,-4.50
2022-12-19T01:11:02.499Z,-4.50
2022-12-19T01:11:59.240Z,-4.50
2022-12-19T01:12:48.109Z,-4.50
2022-12-19T01:13:24.293Z,-4.50
2022-12-19T01:13:59.322Z,-4.40
2022-12-19T01:14:33.798Z,-4.40
2022-12-19T01:15:12.059Z,-4.40
2022-12-19T01:15:46.631Z,-4.40
2022-12-19T01:16:20.961Z,-4.40
2022-12-19T01:16:56.287Z,-4.30
2022-12-19T01:17:37.054Z,-4.30
2022-12-19T01:18:20.952Z,-4.30
2022-12-19T01:18:55.294Z,-4.30
2022-12-19T01:19:31.234Z,-4.30
2022-12-19T01:20:08.007Z,-4.30
2022-12-19T01:20:44.530Z,-4.30
2022-12-19T01:21:19.434Z,-4.30
2022-12-19T01:21:54.879Z,-4.30
2022-12-19T01:22:28.533Z,-4.30
2022-12-19T01:23:03.305Z,-4.30
2022-12-19T01:23:38.750Z,-4.30
2022-12-19T01:24:12.016Z,-4.20
2022-12-19T01:24:47.514Z,-4.20
2022-12-19T01:25:23.214Z,-4.20
2022-12-19T01:25:57.559Z,-4.20
2022-12-19T01:26:31.227Z,-4.20
2022-12-19T01:27:06.830Z,-4.20
2022-12-19T01:27:40.861Z,-4.20
2022-12-19T01:28:15.957Z,-4.20
2022-12-19T01:28:52.079Z,-4.20
2022-12-19T01:29:28.252Z,-4.20
2022-12-19T01:30:02.817Z,-4.20
2022-12-19T01:30:43.327Z,-4.20
2022-12-19T01:31:18.126Z,-4.20
2022-12-19T01:31:52.727Z,-4.20
2022-12-19T01:32:28.002Z,-4.20
2022-12-19T01:33:02.278Z,-4.20
2022-12-19T01:33:35.892Z,-4.20
2022-12-19T01:34:14.265Z,-4.10
2022-12-19T01:34:47.592Z,-4.10
2022-12-19T01:35:22.320Z,-4.10
2022-12-19T01:35:58.119Z,-4.10
2022-12-19T01:36:32.441Z,-4.10
2022-12-19T01:37:08.524Z,-4.10
2022-12-19T01:37:43.808Z,-4.10
2022-12-19T01:38:18.898Z,-4.10
2022-12-19T01:38:55.983Z,-4.10
2022-12-19T01:39:31.351Z,-4.10
2022-12-19T01:40:10.125Z,-4.00
2022-12-19T01:40:50.994Z,-4.00
2022-12-19T01:41:28.343Z,-4.00
2022-12-19T01:42:01.811Z,-4.00
2022-12-19T01:42:36.854Z,-4.00
2022-12-19T01:43:16.368Z,-4.00
2022-12-19T01:43:57.664Z,-3.90
2022-12-19T01:44:31.589Z,-4.00
2022-12-19T01:45:21.789Z,-3.90
2022-12-19T01:45:58.819Z,-3.90
2022-12-19T01:46:36.215Z,-3.90
2022-12-19T01:47:15.373Z,-3.90
2022-12-19T01:47:53.847Z,-3.90
2022-12-19T01:48:32.823Z,-3.90
2022-12-19T01:49:15.580Z,-3.90
2022-12-19T01:49:51.617Z,-3.90
2022-12-19T01:50:34.646Z,-3.90
2022-12-19T01:51:14.917Z,-3.90
2022-12-19T01:51:48.878Z,-3.90
2022-12-19T01:52:24.395Z,-3.90
2022-12-19T01:53:03.435Z,-3.90
2022-12-19T01:53:49.344Z,-3.90
2022-12-19T01:54:26.334Z,-3.90
2022-12-19T01:55:03.089Z,-3.90
2022-12-19T01:55:39.920Z,-3.90
2022-12-19T01:56:15.646Z,-3.90
2022-12-19T01:56:55.987Z,-3.90
2022-12-19T01:57:30.123Z,-3.90
2022-12-19T01:58:05.013Z,-3.90
2022-12-19T01:58:42.429Z,-3.80
2022-12-19T01:59:20.798Z,-3.80
2022-12-19T02:00:00.184Z,-3.80
2022-12-19T02:00:34.946Z,-3.80
2022-12-19T02:01:07.820Z,-3.80
2022-12-19T02:01:51.713Z,-3.80
2022-12-19T02:02:33.965Z,-3.80
2022-12-19T02:03:12.797Z,-3.70
2022-12-19T02:03:54.046Z,-3.70
2022-12-19T02:04:32.525Z,-3.70
2022-12-19T02:05:44.426Z,-3.70
2022-12-19T02:06:19.584Z,-3.70
2022-12-19T02:06:54.927Z,-3.70
2022-12-19T02:07:32.543Z,-3.70
2022-12-19T02:08:06.592Z,-3.60
2022-12-19T02:08:42.584Z,-3.60
2022-12-19T02:09:15.885Z,-3.60
2022-12-19T02:09:56.883Z,-3.60
2022-12-19T02:10:42.838Z,-3.60
2022-12-19T02:11:17.877Z,-3.60
2022-12-19T02:11:53.302Z,-3.60
2022-12-19T02:12:30.528Z,-3.60
2022-12-19T02:13:06.380Z,-3.60
2022-12-19T02:13:41.335Z,-3.60
2022-12-19T02:14:20.238Z,-3.60
2022-12-19T02:14:56.010Z,-3.60
2022-12-19T02:15:47.448Z,-3.60
2022-12-19T02:16:36.004Z,-3.60
2022-12-19T02:17:16.106Z,-3.60
2022-12-19T02:18:05.172Z,-3.60
2022-12-19T02:18:48.960Z,-3.60
2022-12-19T02:19:51.634Z,-3.60
2022-12-19T02:20:55.136Z,-3.60
2022-12-19T02:21:44.697Z,-3.60
2022-12-19T02:22:27.583Z,-3.60
2022-12-19T02:23:35.614Z,-3.60
2022-12-19T02:25:11.138Z,-3.60
2022-12-19T02:26:03.327Z,-3.60
2022-12-19T02:26:52.615Z,-3.50
2022-12-19T02:27:52.562Z,-3.50
2022-12-19T02:28:44.926Z,-3.50
2022-12-19T02:29:33.265Z,-3.50
2022-12-19T02:30:12.359Z,-3.40
2022-12-19T02:31:11.875Z,-3.40
2022-12-19T02:31:59.853Z,-3.40
2022-12-19T02:32:41.995Z,-3.40
2022-12-19T02:33:24.405Z,-3.40
2022-12-19T02:34:03.630Z,-3.40
2022-12-19T02:34:44.883Z,-3.40
2022-12-19T02:35:29.439Z,-3.30
2022-12-19T02:36:09.345Z,-3.30
2022-12-19T02:36:49.541Z,-3.30
2022-12-19T02:37:30.841Z,-3.30
2022-12-19T02:38:13.855Z,-3.30
2022-12-19T02:38:53.898Z,-3.30
2022-12-19T02:39:34.546Z,-3.30
2022-12-19T02:40:15.165Z,-3.30
2022-12-19T02:40:54.655Z,-3.30
2022-12-19T02:41:43.911Z,-3.30
2022-12-19T02:42:30.570Z,-3.30
2022-12-19T02:43:11.889Z,-3.20
2022-12-19T02:43:49.574Z,-3.20
2022-12-19T02:44:31.351Z,-3.20
2022-12-19T02:45:11.732Z,-3.20
2022-12-19T02:45:51.477Z,-3.20
2022-12-19T02:46:26.897Z,-3.20
2022-12-19T02:47:05.500Z,-3.10
2022-12-19T02:47:40.900Z,-3.10
2022-12-19T02:48:19.625Z,-3.10
2022-12-19T02:48:55.021Z,-3.10
2022-12-19T02:49:30.972Z,-3.10
2022-12-19T02:50:08.830Z,-3.10
2022-12-19T02:50:47.368Z,-3.10
2022-12-19T02:51:25.226Z,-3.00
2022-12-19T02:51:58.770Z,-3.00
2022-12-19T02:52:48.016Z,-3.00
2022-12-19T02:53:24.152Z,-3.00
2022-12-19T02:54:04.354Z,-3.00
2022-12-19T02:54:44.834Z,-3.00
2022-12-19T02:55:25.291Z,-3.00
2022-12-19T02:56:23.697Z,-3.00
2022-12-19T02:57:09.523Z,-2.90
2022-12-19T02:57:57.822Z,-2.90
2022-12-19T02:58:47.793Z,-2.90
2022-12-19T02:59:44.761Z,-2.90
2022-12-19T03:00:21.499Z,-2.80
2022-12-19T03:01:01.228Z,-2.80
2022-12-19T03:01:48.686Z,-2.80
2022-12-19T03:02:33.788Z,-2.80
2022-12-19T03:03:13.223Z,-2.80
2022-12-19T03:03:59.756Z,-2.70
2022-12-19T03:04:46.961Z,-2.70
2022-12-19T03:05:45.396Z,-2.70
2022-12-19T03:06:27.588Z,-2.60
2022-12-19T03:07:12.218Z,-2.60
2022-12-19T03:07:51.281Z,-2.60
2022-12-19T03:08:28.161Z,-2.60
2022-12-19T03:09:15.541Z,-2.50
2022-12-19T03:09:57.236Z,-2.50
2022-12-19T03:10:39.164Z,-2.50
2022-12-19T03:11:15.469Z,-2.50
2022-12-19T03:12:01.922Z,-2.50
2022-12-19T03:12:40.005Z,-2.50
2022-12-19T03:13:18.361Z,-2.40
2022-12-19T03:14:00.762Z,-2.40
2022-12-19T03:14:36.719Z,-2.50
2022-12-19T03:15:13.513Z,-2.40
2022-12-19T03:15:49.562Z,-2.50
2022-12-19T03:16:23.843Z,-2.40
2022-12-19T03:17:05.626Z,-2.40
2022-12-19T03:17:41.396Z,-2.40
2022-12-19T03:18:16.103Z,-2.40
2022-12-19T03:18:52.148Z,-2.40
2022-12-19T03:19:26.908Z,-2.40
2022-12-19T03:20:02.255Z,-2.40
2022-12-19T03:20:44.660Z,-2.40
2022-12-19T03:21:24.626Z,-2.40
2022-12-19T03:21:59.686Z,-2.40
2022-12-19T03:22:34.097Z,-2.40
2022-12-19T03:23:08.248Z,-2.40
2022-12-19T03:23:44.657Z,-2.40
2022-12-19T03:24:19.715Z,-2.40
2022-12-19T03:24:53.670Z,-2.40
2022-12-19T03:25:31.168Z,-2.40
2022-12-19T03:26:09.182Z,-2.40
2022-12-19T03:26:48.218Z,-2.40
2022-12-19T03:27:27.086Z,-2.40
2022-12-19T03:28:05.628Z,-2.40
2022-12-19T03:28:44.690Z,-2.40
2022-12-19T03:29:24.260Z,-2.40
2022-12-19T03:30:03.461Z,-2.40
2022-12-19T03:30:40.646Z,-2.40
2022-12-19T03:31:17.417Z,-2.40
2022-12-19T03:32:00.391Z,-2.40
2022-12-19T03:32:37.893Z,-2.40
2022-12-19T03:33:14.457Z,-2.40
2022-12-19T03:33:50.871Z,-2.40
2022-12-19T03:34:30.655Z,-2.40
2022-12-19T03:35:04.516Z,-2.40
2022-12-19T03:35:40.542Z,-2.40
2022-12-19T03:36:20.999Z,-2.40
2022-12-19T03:36:58.574Z,-2.40
2022-12-19T03:37:37.233Z,-2.40
2022-12-19T03:38:15.362Z,-2.40
2022-12-19T03:38:48.906Z,-2.40
2022-12-19T03:39:24.592Z,-2.40
2022-12-19T03:40:02.482Z,-2.40
2022-12-19T03:40:38.185Z,-2.40
2022-12-19T03:41:16.624Z,-2.40
2022-12-19T03:42:10.756Z,-2.40
2022-12-19T03:43:05.671Z,-2.40
2022-12-19T03:43:40.750Z,-2.40
2022-12-19T03:44:19.215Z,-2.40
2022-12-19T03:44:55.738Z,-2.30
2022-12-19T03:45:36.712Z,-2.30
2022-12-19T03:46:18.394Z,-2.30
2022-12-19T03:46:59.010Z,-2.30
2022-12-19T03:47:37.903Z,-2.30
2022-12-19T03:48:18.987Z,-2.30
2022-12-19T03:48:55.877Z,-2.30
2022-12-19T03:49:29.849Z,-2.30
2022-12-19T03:50:05.198Z,-2.30
2022-12-19T03:50:49.834Z,-2.30
2022-12-19T03:51:33.689Z,-2.30
2022-12-19T03:52:19.166Z,-2.20
2022-12-19T03:53:03.747Z,-2.30
2022-12-19T03:53:48.523Z,-2.20
2022-12-19T03:54:28.398Z,-2.30
2022-12-19T03:55:08.818Z,-2.30
2022-12-19T03:55:48.207Z,-2.30
2022-12-19T03:56:34.263Z,-2.30
2022-12-19T03:57:14.700Z,-2.30
2022-12-19T03:57:54.414Z,-2.30
2022-12-19T03:58:33.207Z,-2.20
2022-12-19T03:59:10.944Z,-2.20
2022-12-19T03:59:52.296Z,-2.20
2022-12-19T04:00:26.693Z,-2.20
2022-12-19T04:01:01.108Z,-2.20
2022-12-19T04:01:36.870Z,-2.20
2022-12-19T04:02:13.927Z,-2.20
2022-12-19T04:02:56.048Z,-2.20
2022-12-19T04:03:31.277Z,-2.20
2022-12-19T04:04:08.307Z,-2.20
2022-12-19T04:04:50.873Z,-2.20
2022-12-19T04:05:27.664Z,-2.30
2022-12-19T04:06:03.477Z,-2.30
2022-12-19T04:06:38.319Z,-2.30
2022-12-19T04:07:12.860Z,-2.30
2022-12-19T04:07:48.215Z,-2.30
2022-12-19T04:08:24.492Z,-2.30
2022-12-19T04:08:59.330Z,-2.30
2022-12-19T04:09:36.318Z,-2.40
2022-12-19T04:10:15.776Z,-2.40
2022-12-19T04:10:54.510Z,-2.40
2022-12-19T04:11:36.519Z,-2.40
2022-12-19T04:12:17.883Z,-2.40
2022-12-19T04:12:55.031Z,-2.40
2022-12-19T04:13:36.934Z,-2.40
2022-12-19T04:14:16.676Z,-2.40
2022-12-19T04:14:51.371Z,-2.40
2022-12-19T04:15:36.945Z,-2.40
2022-12-19T04:16:18.789Z,-2.40
2022-12-19T04:16:59.621Z,-2.40
2022-12-19T04:17:40.128Z,-2.40
2022-12-19T04:18:19.081Z,-2.40
2022-12-19T04:19:00.834Z,-2.40
2022-12-19T04:19:44.420Z,-2.30
2022-12-19T04:20:21.159Z,-2.30
2022-12-19T04:21:02.868Z,-2.30
2022-12-19T04:21:45.660Z,-2.30
2022-12-19T04:22:27.486Z,-2.30
2022-12-19T04:23:06.966Z,-2.30
2022-12-19T04:23:46.448Z,-2.30
2022-12-19T04:24:27.511Z,-2.30
2022-12-19T04:25:06.256Z,-2.30
2022-12-19T04:25:46.993Z,-2.40
2022-12-19T04:26:23.941Z,-2.30
2022-12-19T04:27:00.317Z,-2.30
2022-12-19T04:27:37.816Z,-2.30
2022-12-19T04:28:19.565Z,-2.30
2022-12-19T04:28:57.113Z,-2.30
2022-12-19T04:29:36.226Z,-2.40
2022-12-19T04:30:14.952Z,-2.40
2022-12-19T04:30:50.911Z,-2.40
2022-12-19T04:31:27.337Z,-2.40
2022-12-19T04:32:04.802Z,-2.40
2022-12-19T04:32:41.063Z,-2.40
2022-12-19T04:33:18.696Z,-2.40
2022-12-19T04:33:55.186Z,-2.40
2022-12-19T04:34:28.859Z,-2.40
2022-12-19T04:35:03.776Z,-2.40
2022-12-19T04:35:37.802Z,-2.50
2022-12-19T04:36:14.086Z,-2.40
2022-12-19T04:36:47.911Z,-2.50
2022-12-19T04:37:21.727Z,-2.50
2022-12-19T04:37:56.823Z,-2.50
2022-12-19T04:38:31.396Z,-2.50
2022-12-19T04:39:05.496Z,-2.50
2022-12-19T04:39:40.923Z,-2.50
2022-12-19T04:40:16.306Z,-2.50
2022-12-19T04:40:51.315Z,-2.50
2022-12-19T04:41:26.804Z,-2.60
2022-12-19T04:42:00.817Z,-2.60
2022-12-19T04:42:35.700Z,-2.60
2022-12-19T04:43:11.119Z,-2.60
2022-12-19T04:43:45.678Z,-2.60
2022-12-19T04:44:19.476Z,-2.60
2022-12-19T04:44:54.611Z,-2.70
2022-12-19T04:45:27.811Z,-2.70
2022-12-19T04:46:01.542Z,-2.70
2022-12-19T04:46:37.680Z,-2.70
2022-12-19T04:47:12.774Z,-2.70
2022-12-19T04:47:47.651Z,-2.70
2022-12-19T04:48:23.511Z,-2.70
2022-12-19T04:48:56.835Z,-2.70
2022-12-19T04:49:30.080Z,-2.70
2022-12-19T04:50:06.406Z,-2.70
2022-12-19T04:50:40.330Z,-2.70
2022-12-19T04:51:13.853Z,-2.70
2022-12-19T04:51:49.910Z,-2.70
2022-12-19T04:52:23.907Z,-2.70
2022-12-19T04:52:59.753Z,-2.70
2022-12-19T04:53:34.538Z,-2.70
2022-12-19T04:54:08.342Z,-2.70
2022-12-19T04:54:43.276Z,-2.60
2022-12-19T04:55:19.521Z,-2.60
2022-12-19T04:56:01.786Z,-2.60
2022-12-19T04:56:35.467Z,-2.60
2022-12-19T04:57:10.233Z,-2.60
2022-12-19T04:57:44.459Z,-2.60
2022-12-19T04:58:22.004Z,-2.60
2022-12-19T04:59:02.248Z,-2.50
2022-12-19T04:59:35.142Z,-2.50
2022-12-19T05:00:11.252Z,-2.50
2022-12-19T05:00:46.013Z,-2.50
2022-12-19T05:01:20.927Z,-2.50
2022-12-19T05:01:55.974Z,-2.50
2022-12-19T05:02:30.811Z,-2.50
2022-12-19T05:03:06.155Z,-2.50
2022-12-19T05:03:41.623Z,-2.50
2022-12-19T05:04:16.357Z,-2.50
2022-12-19T05:04:51.334Z,-2.50
2022-12-19T05:05:25.759Z,-2.50
2022-12-19T05:06:09.010Z,-2.50
2022-12-19T05:06:43.487Z,-2.50
2022-12-19T05:07:21.465Z,-2.50
2022-12-19T05:07:58.925Z,-2.40
2022-12-19T05:08:32.376Z,-2.40
2022-12-19T05:09:06.831Z,-2.40
2022-12-19T05:09:41.239Z,-2.40
2022-12-19T05:10:15.806Z,-2.40
2022-12-19T05:10:50.766Z,-2.40
2022-12-19T05:11:25.648Z,-2.40
2022-12-19T05:12:00.586Z,-2.40
2022-12-19T05:12:36.659Z,-2.40
2022-12-19T05:13:11.548Z,-2.40
2022-12-19T05:13:45.850Z,-2.40
2022-12-19T05:14:20.817Z,-2.40
2022-12-19T05:14:54.574Z,-2.40
2022-12-19T05:15:28.828Z,-2.40
2022-12-19T05:16:05.804Z,-2.40
2022-12-19T05:16:40.695Z,-2.40
2022-12-19T05:17:15.188Z,-2.40
2022-12-19T05:17:49.359Z,-2.30
2022-12-19T05:18:24.525Z,-2.40
2022-12-19T05:19:00.168Z,-2.30
2022-12-19T05:19:34.436Z,-2.40
2022-12-19T05:20:12.243Z,-2.40
2022-12-19T05:20:49.044Z,-2.40
2022-12-19T05:21:23.388Z,-2.40
2022-12-19T05:21:58.327Z,-2.40
2022-12-19T05:22:33.260Z,-2.40
2022-12-19T05:23:15.222Z,-2.40
2022-12-19T05:23:51.903Z,-2.40
2022-12-19T05:24:25.333Z,-2.40
2022-12-19T05:24:58.613Z,-2.30
2022-12-19T05:25:36.835Z,-2.30
2022-12-19T05:26:12.611Z,-2.30
2022-12-19T05:26:47.034Z,-2.40
2022-12-19T05:27:21.202Z,-2.30
2022-12-19T05:27:56.190Z,-2.30
2022-12-19T05:28:32.735Z,-2.30
2022-12-19T05:29:08.391Z,-2.30
2022-12-19T05:29:44.188Z,-2.30
2022-12-19T05:30:19.280Z,-2.30
2022-12-19T05:30:53.661Z,-2.30
2022-12-19T05:31:29.499Z,-2.30
2022-12-19T05:32:04.561Z,-2.30
2022-12-19T05:32:37.881Z,-2.30
2022-12-19T05:33:13.277Z,-2.20
2022-12-19T05:33:48.000Z,-2.30
2022-12-19T05:34:24.978Z,-2.20
2022-12-19T05:35:01.101Z,-2.20
2022-12-19T05:35:35.899Z,-2.20
2022-12-19T05:36:12.210Z,-2.20
2022-12-19T05:36:46.828Z,-2.20
2022-12-19T05:37:21.259Z,-2.30
2022-12-19T05:37:56.615Z,-2.30
2022-12-19T05:38:31.479Z,-2.30
2022-12-19T05:39:06.023Z,-2.30
2022-12-19T05:39:40.042Z,-2.30
2022-12-19T05:40:15.827Z,-2.30
2022-12-19T05:40:50.188Z,-2.20
2022-12-19T05:41:25.000Z,-2.20
2022-12-19T05:41:58.844Z,-2.20
2022-12-19T05:42:33.910Z,-2.20
2022-12-19T05:43:09.603Z,-2.20
2022-12-19T05:43:44.481Z,-2.20
2022-12-19T05:44:20.249Z,-2.10
2022-12-19T05:44:54.706Z,-2.10
2022-12-19T05:45:29.065Z,-2.10
2022-12-19T05:46:06.693Z,-2.10
2022-12-19T05:46:40.570Z,-2.10
2022-12-19T05:47:15.269Z,-2.10
2022-12-19T05:47:50.663Z,-2.10
2022-12-19T05:48:25.484Z,-2.10
2022-12-19T05:49:00.017Z,-2.00
2022-12-19T05:49:36.513Z,-2.00
2022-12-19T05:50:10.961Z,-2.00
2022-12-19T05:50:49.379Z,-2.00
2022-12-19T05:51:24.633Z,-2.00
2022-12-19T05:51:58.422Z,-2.00
2022-12-19T05:52:34.582Z,-2.00
2022-12-19T05:53:10.226Z,-2.00
2022-12-19T05:53:44.330Z,-2.00
2022-12-19T05:54:19.318Z,-2.00
2022-12-19T05:54:53.536Z,-2.00
2022-12-19T05:55:27.244Z,-2.00
2022-12-19T05:56:06.996Z,-2.00
2022-12-19T05:56:42.600Z,-2.00
2022-12-19T05:57:17.530Z,-2.00
2022-12-19T05:57:51.623Z,-2.00
2022-12-19T05:58:26.640Z,-2.00
2022-12-19T05:59:01.343Z,-2.00
2022-12-19T05:59:36.290Z,-2.00
2022-12-19T06:00:11.209Z,-2.00
2022-12-19T06:00:49.336Z,-2.00
2022-12-19T06:01:25.160Z,-2.00
2022-12-19T06:02:00.220Z,-2.00
2022-12-19T06:02:37.024Z,-2.00
2022-12-19T06:03:11.325Z,-2.00
2022-12-19T06:03:45.515Z,-1.90
2022-12-19T06:04:21.000Z,-2.00
2022-12-19T06:04:57.203Z,-1.90
2022-12-19T06:05:31.330Z,-1.90
2022-12-19T06:06:05.737Z,-1.90
2022-12-19T06:06:40.901Z,-1.90
2022-12-19T06:07:20.858Z,-1.90
2022-12-19T06:07:57.273Z,-1.90
2022-12-19T06:08:31.291Z,-1.90
2022-12-19T06:09:05.218Z,-1.90
2022-12-19T06:09:40.523Z,-1.90
2022-12-19T06:10:13.934Z,-1.90
2022-12-19T06:10:48.825Z,-1.90
2022-12-19T06:11:23.799Z,-1.90
2022-12-19T06:11:56.609Z,-1.90
2022-12-19T06:12:30.126Z,-1.90
2022-12-19T06:13:04.358Z,-1.90
2022-12-19T06:13:38.485Z,-1.80
2022-12-19T06:14:14.165Z,-1.80
2022-12-19T06:14:48.839Z,-1.90
2022-12-19T06:15:23.828Z,-1.80
2022-12-19T06:16:01.099Z,-1.80
2022-12-19T06:16:34.997Z,-1.80
2022-12-19T06:17:08.406Z,-1.80
2022-12-19T06:17:44.093Z,-1.80
2022-12-19T06:18:17.415Z,-1.80
2022-12-19T06:18:51.745Z,-1.70
2022-12-19T06:19:25.907Z,-1.80
2022-12-19T06:20:01.436Z,-1.70
2022-12-19T06:20:35.388Z,-1.70
2022-12-19T06:21:15.095Z,-1.70
2022-12-19T06:21:49.344Z,-1.70
2022-12-19T06:22:24.870Z,-1.70
2022-12-19T06:22:59.320Z,-1.70
2022-12-19T06:23:35.522Z,-1.70
2022-12-19T06:24:12.022Z,-1.70
2022-12-19T06:24:49.508Z,-1.60
2022-12-19T06:25:23.908Z,-1.70
2022-12-19T06:25:58.424Z,-1.70
2022-12-19T06:26:35.507Z,-1.70
2022-12-19T06:27:10.076Z,-1.60
2022-12-19T06:27:44.551Z,-1.60
2022-12-19T06:28:20.252Z,-1.60
2022-12-19T06:28:56.409Z,-1.60
